sensor_id;sensor_type;location;lat;lon;timestamp;temperature;humidity
814;DHT22;389;48.710;9.392;2023-04-03T00:01:09;5.60;90.80
814;DHT22;389;48.710;9.392;2023-04-03T00:03:35;5.60;90.70
814;DHT22;389;48.710;9.392;2023-04-03T00:06:02;5.50;90.70
814;DHT22;389;48.710;9.392;2023-04-03T00:08:28;5.50;90.80
814;DHT22;389;48.710;9.392;2023-04-03T00:10:56;5.40;90.90
814;DHT22;389;48.710;9.392;2023-04-03T00:13:22;5.40;90.90
814;DHT22;389;48.710;9.392;2023-04-03T00:15:47;5.40;91.00
814;DHT22;389;48.710;9.392;2023-04-03T00:18:13;5.30;91.00
814;DHT22;389;48.710;9.392;2023-04-03T00:20:39;5.20;91.10
814;DHT22;389;48.710;9.392;2023-04-03T00:23:04;5.20;91.10
814;DHT22;389;48.710;9.392;2023-04-03T00:25:30;5.20;91.40
814;DHT22;389;48.710;9.392;2023-04-03T00:27:56;5.20;91.40
814;DHT22;389;48.710;9.392;2023-04-03T00:30:23;5.10;91.40
814;DHT22;389;48.710;9.392;2023-04-03T00:32:49;5.20;91.60
814;DHT22;389;48.710;9.392;2023-04-03T00:35:15;5.10;91.60
814;DHT22;389;48.710;9.392;2023-04-03T00:37:43;5.00;91.60
814;DHT22;389;48.710;9.392;2023-04-03T00:40:09;4.90;91.50
814;DHT22;389;48.710;9.392;2023-04-03T00:42:40;5.00;91.50
814;DHT22;389;48.710;9.392;2023-04-03T00:47:51;5.00;91.60
814;DHT22;389;48.710;9.392;2023-04-03T00:50:17;4.90;91.60
814;DHT22;389;48.710;9.392;2023-04-03T00:52:43;4.80;91.60
814;DHT22;389;48.710;9.392;2023-04-03T00:55:11;4.80;91.60
814;DHT22;389;48.710;9.392;2023-04-03T00:57:37;4.90;91.70
814;DHT22;389;48.710;9.392;2023-04-03T01:00:11;4.90;91.70
814;DHT22;389;48.710;9.392;2023-04-03T01:02:37;4.80;91.70
814;DHT22;389;48.710;9.392;2023-04-03T01:05:06;5.00;91.80
814;DHT22;389;48.710;9.392;2023-04-03T01:07:32;4.90;91.70
814;DHT22;389;48.710;9.392;2023-04-03T01:10:01;4.90;91.70
814;DHT22;389;48.710;9.392;2023-04-03T01:12:38;4.90;91.60
814;DHT22;389;48.710;9.392;2023-04-03T01:15:08;5.00;91.60
814;DHT22;389;48.710;9.392;2023-04-03T01:17:38;4.90;91.60
814;DHT22;389;48.710;9.392;2023-04-03T01:25:55;4.90;91.80
814;DHT22;389;48.710;9.392;2023-04-03T01:28:33;4.90;91.70
814;DHT22;389;48.710;9.392;2023-04-03T01:31:25;5.00;91.70
814;DHT22;389;48.710;9.392;2023-04-03T01:33:51;4.90;91.40
814;DHT22;389;48.710;9.392;2023-04-03T01:36:26;4.90;91.40
814;DHT22;389;48.710;9.392;2023-04-03T01:38:53;5.00;91.40
814;DHT22;389;48.710;9.392;2023-04-03T01:41:19;5.00;91.30
814;DHT22;389;48.710;9.392;2023-04-03T01:43:47;5.00;91.20
814;DHT22;389;48.710;9.392;2023-04-03T01:46:13;5.00;91.00
814;DHT22;389;48.710;9.392;2023-04-03T01:48:38;5.10;90.90
814;DHT22;389;48.710;9.392;2023-04-03T01:51:04;5.10;90.80
814;DHT22;389;48.710;9.392;2023-04-03T01:53:29;5.10;90.60
814;DHT22;389;48.710;9.392;2023-04-03T01:55:55;5.10;90.50
814;DHT22;389;48.710;9.392;2023-04-03T01:58:21;5.10;90.50
814;DHT22;389;48.710;9.392;2023-04-03T02:00:46;5.10;90.30
814;DHT22;389;48.710;9.392;2023-04-03T02:03:12;5.10;90.30
814;DHT22;389;48.710;9.392;2023-04-03T02:05:37;5.10;90.30
814;DHT22;389;48.710;9.392;2023-04-03T02:08:03;5.10;90.10
814;DHT22;389;48.710;9.392;2023-04-03T02:10:29;5.10;90.00
814;DHT22;389;48.710;9.392;2023-04-03T02:12:54;5.10;90.10
814;DHT22;389;48.710;9.392;2023-04-03T02:15:20;5.00;90.00
814;DHT22;389;48.710;9.392;2023-04-03T02:17:46;5.00;90.00
814;DHT22;389;48.710;9.392;2023-04-03T02:20:11;5.00;90.10
814;DHT22;389;48.710;9.392;2023-04-03T02:22:37;5.00;90.10
814;DHT22;389;48.710;9.392;2023-04-03T02:25:03;5.00;90.00
814;DHT22;389;48.710;9.392;2023-04-03T02:27:29;5.00;89.90
814;DHT22;389;48.710;9.392;2023-04-03T02:29:55;5.10;90.00
814;DHT22;389;48.710;9.392;2023-04-03T02:32:20;5.10;90.00
814;DHT22;389;48.710;9.392;2023-04-03T02:34:46;5.10;89.90
814;DHT22;389;48.710;9.392;2023-04-03T02:37:12;5.10;89.70
814;DHT22;389;48.710;9.392;2023-04-03T02:39:38;5.10;89.60
814;DHT22;389;48.710;9.392;2023-04-03T02:42:04;5.10;89.50
814;DHT22;389;48.710;9.392;2023-04-03T02:44:30;5.10;89.30
814;DHT22;389;48.710;9.392;2023-04-03T02:46:56;5.20;89.40
814;DHT22;389;48.710;9.392;2023-04-03T02:49:21;5.30;89.60
814;DHT22;389;48.710;9.392;2023-04-03T02:51:47;5.30;89.40
814;DHT22;389;48.710;9.392;2023-04-03T02:54:13;5.20;88.90
814;DHT22;389;48.710;9.392;2023-04-03T02:56:39;5.20;88.70
814;DHT22;389;48.710;9.392;2023-04-03T02:59:05;5.20;88.60
814;DHT22;389;48.710;9.392;2023-04-03T03:01:31;5.30;88.60
814;DHT22;389;48.710;9.392;2023-04-03T03:03:58;5.30;88.30
814;DHT22;389;48.710;9.392;2023-04-03T03:06:24;5.30;88.10
814;DHT22;389;48.710;9.392;2023-04-03T03:08:51;5.30;88.30
814;DHT22;389;48.710;9.392;2023-04-03T03:11:17;5.30;88.30
814;DHT22;389;48.710;9.392;2023-04-03T03:13:42;5.30;88.20
814;DHT22;389;48.710;9.392;2023-04-03T03:16:08;5.40;88.00
814;DHT22;389;48.710;9.392;2023-04-03T03:18:34;5.40;87.90
814;DHT22;389;48.710;9.392;2023-04-03T03:21:02;5.40;87.90
814;DHT22;389;48.710;9.392;2023-04-03T03:23:29;5.40;87.80
814;DHT22;389;48.710;9.392;2023-04-03T03:25:58;5.50;87.80
814;DHT22;389;48.710;9.392;2023-04-03T03:28:24;5.40;87.70
814;DHT22;389;48.710;9.392;2023-04-03T03:30:50;5.50;87.60
814;DHT22;389;48.710;9.392;2023-04-03T03:33:16;5.50;87.40
814;DHT22;389;48.710;9.392;2023-04-03T03:35:42;5.50;87.60
814;DHT22;389;48.710;9.392;2023-04-03T03:38:08;5.50;87.60
814;DHT22;389;48.710;9.392;2023-04-03T03:40:34;5.40;87.40
814;DHT22;389;48.710;9.392;2023-04-03T03:43:00;5.60;87.60
814;DHT22;389;48.710;9.392;2023-04-03T03:45:26;5.50;87.60
814;DHT22;389;48.710;9.392;2023-04-03T03:47:52;5.50;87.30
814;DHT22;389;48.710;9.392;2023-04-03T03:50:18;5.40;87.10
814;DHT22;389;48.710;9.392;2023-04-03T03:52:43;5.20;86.70
814;DHT22;389;48.710;9.392;2023-04-03T03:55:10;5.50;86.80
814;DHT22;389;48.710;9.392;2023-04-03T03:57:36;5.50;86.20
814;DHT22;389;48.710;9.392;2023-04-03T04:00:02;5.40;85.90
814;DHT22;389;48.710;9.392;2023-04-03T04:02:28;5.50;85.90
814;DHT22;389;48.710;9.392;2023-04-03T04:04:54;5.60;85.70
814;DHT22;389;48.710;9.392;2023-04-03T04:07:20;5.30;84.40
814;DHT22;389;48.710;9.392;2023-04-03T04:09:46;5.50;84.60
814;DHT22;389;48.710;9.392;2023-04-03T04:12:11;5.60;84.60
814;DHT22;389;48.710;9.392;2023-04-03T04:14:37;5.60;84.70
814;DHT22;389;48.710;9.392;2023-04-03T04:17:02;5.50;84.60
814;DHT22;389;48.710;9.392;2023-04-03T04:19:28;5.50;84.40
814;DHT22;389;48.710;9.392;2023-04-03T04:21:54;5.50;84.20
814;DHT22;389;48.710;9.392;2023-04-03T04:24:19;5.50;83.80
814;DHT22;389;48.710;9.392;2023-04-03T04:26:45;5.50;84.10
814;DHT22;389;48.710;9.392;2023-04-03T04:29:11;5.40;84.10
814;DHT22;389;48.710;9.392;2023-04-03T04:34:07;5.50;83.90
814;DHT22;389;48.710;9.392;2023-04-03T04:36:33;5.50;84.00
814;DHT22;389;48.710;9.392;2023-04-03T04:38:58;5.50;84.40
814;DHT22;389;48.710;9.392;2023-04-03T04:41:24;5.40;84.20
814;DHT22;389;48.710;9.392;2023-04-03T04:43:50;5.40;83.30
814;DHT22;389;48.710;9.392;2023-04-03T04:46:16;5.50;83.70
814;DHT22;389;48.710;9.392;2023-04-03T04:48:42;5.40;83.80
814;DHT22;389;48.710;9.392;2023-04-03T04:51:07;5.40;83.90
814;DHT22;389;48.710;9.392;2023-04-03T04:53:33;5.40;83.90
814;DHT22;389;48.710;9.392;2023-04-03T04:55:59;5.40;83.80
814;DHT22;389;48.710;9.392;2023-04-03T04:58:25;5.40;83.80
814;DHT22;389;48.710;9.392;2023-04-03T05:01:01;5.40;83.50
814;DHT22;389;48.710;9.392;2023-04-03T05:03:28;5.40;83.10
814;DHT22;389;48.710;9.392;2023-04-03T05:05:53;5.40;82.40
814;DHT22;389;48.710;9.392;2023-04-03T05:08:19;5.50;82.80
814;DHT22;389;48.710;9.392;2023-04-03T05:10:45;5.50;82.80
814;DHT22;389;48.710;9.392;2023-04-03T05:13:11;5.50;82.60
814;DHT22;389;48.710;9.392;2023-04-03T05:15:37;5.50;82.70
814;DHT22;389;48.710;9.392;2023-04-03T05:18:02;5.50;82.70
814;DHT22;389;48.710;9.392;2023-04-03T05:20:28;5.60;82.60
814;DHT22;389;48.710;9.392;2023-04-03T05:22:54;5.50;82.40
814;DHT22;389;48.710;9.392;2023-04-03T05:25:19;5.50;81.80
814;DHT22;389;48.710;9.392;2023-04-03T05:27:45;5.50;81.80
814;DHT22;389;48.710;9.392;2023-04-03T05:30:11;5.50;82.20
814;DHT22;389;48.710;9.392;2023-04-03T05:32:37;5.40;81.90
814;DHT22;389;48.710;9.392;2023-04-03T05:35:03;5.40;82.10
814;DHT22;389;48.710;9.392;2023-04-03T05:37:28;5.30;81.90
814;DHT22;389;48.710;9.392;2023-04-03T05:39:54;5.20;82.10
814;DHT22;389;48.710;9.392;2023-04-03T05:42:19;5.20;82.30
814;DHT22;389;48.710;9.392;2023-04-03T05:44:45;5.10;82.50
814;DHT22;389;48.710;9.392;2023-04-03T05:47:12;5.10;82.60
814;DHT22;389;48.710;9.392;2023-04-03T05:49:38;5.10;82.60
814;DHT22;389;48.710;9.392;2023-04-03T05:52:10;5.10;83.10
814;DHT22;389;48.710;9.392;2023-04-03T05:54:37;5.10;83.40
814;DHT22;389;48.710;9.392;2023-04-03T05:57:03;5.00;83.20
814;DHT22;389;48.710;9.392;2023-04-03T05:59:28;5.00;83.30
814;DHT22;389;48.710;9.392;2023-04-03T06:01:54;5.00;83.30
814;DHT22;389;48.710;9.392;2023-04-03T06:04:20;5.00;83.30
814;DHT22;389;48.710;9.392;2023-04-03T06:06:51;5.10;83.20
814;DHT22;389;48.710;9.392;2023-04-03T06:09:19;5.10;83.00
814;DHT22;389;48.710;9.392;2023-04-03T06:11:45;5.20;82.90
814;DHT22;389;48.710;9.392;2023-04-03T06:14:11;5.30;83.00
814;DHT22;389;48.710;9.392;2023-04-03T06:16:37;5.40;82.80
814;DHT22;389;48.710;9.392;2023-04-03T06:19:03;5.40;82.30
814;DHT22;389;48.710;9.392;2023-04-03T06:21:29;5.50;82.10
814;DHT22;389;48.710;9.392;2023-04-03T06:23:55;5.60;82.00
814;DHT22;389;48.710;9.392;2023-04-03T06:26:21;5.60;81.70
814;DHT22;389;48.710;9.392;2023-04-03T06:28:47;5.80;81.60
814;DHT22;389;48.710;9.392;2023-04-03T06:31:13;5.80;81.70
814;DHT22;389;48.710;9.392;2023-04-03T06:33:38;5.80;81.60
814;DHT22;389;48.710;9.392;2023-04-03T06:36:05;5.90;81.70
814;DHT22;389;48.710;9.392;2023-04-03T06:38:32;6.00;81.40
814;DHT22;389;48.710;9.392;2023-04-03T06:40:58;6.10;81.50
814;DHT22;389;48.710;9.392;2023-04-03T06:43:23;6.10;81.00
814;DHT22;389;48.710;9.392;2023-04-03T06:45:49;6.20;80.90
814;DHT22;389;48.710;9.392;2023-04-03T06:48:16;6.20;81.00
814;DHT22;389;48.710;9.392;2023-04-03T06:50:41;6.30;82.00
814;DHT22;389;48.710;9.392;2023-04-03T06:53:08;6.40;81.40
814;DHT22;389;48.710;9.392;2023-04-03T06:55:33;6.50;81.00
814;DHT22;389;48.710;9.392;2023-04-03T06:57:59;6.60;81.00
814;DHT22;389;48.710;9.392;2023-04-03T07:00:25;6.60;80.80
814;DHT22;389;48.710;9.392;2023-04-03T07:02:51;6.70;80.70
814;DHT22;389;48.710;9.392;2023-04-03T07:05:17;6.70;80.50
814;DHT22;389;48.710;9.392;2023-04-03T07:07:43;6.70;80.00
814;DHT22;389;48.710;9.392;2023-04-03T07:10:09;6.80;80.50
814;DHT22;389;48.710;9.392;2023-04-03T07:12:36;6.80;80.50
814;DHT22;389;48.710;9.392;2023-04-03T07:15:02;6.90;80.30
814;DHT22;389;48.710;9.392;2023-04-03T07:17:28;7.00;80.00
814;DHT22;389;48.710;9.392;2023-04-03T07:19:54;7.00;80.00
814;DHT22;389;48.710;9.392;2023-04-03T07:22:19;6.90;79.40
814;DHT22;389;48.710;9.392;2023-04-03T07:24:45;6.90;80.00
814;DHT22;389;48.710;9.392;2023-04-03T07:27:11;7.00;80.10
814;DHT22;389;48.710;9.392;2023-04-03T07:29:38;7.10;80.50
814;DHT22;389;48.710;9.392;2023-04-03T07:32:04;7.20;80.20
814;DHT22;389;48.710;9.392;2023-04-03T07:34:31;7.30;79.60
814;DHT22;389;48.710;9.392;2023-04-03T07:36:58;7.40;79.40
814;DHT22;389;48.710;9.392;2023-04-03T07:39:23;7.40;79.40
814;DHT22;389;48.710;9.392;2023-04-03T07:41:49;7.50;79.00
814;DHT22;389;48.710;9.392;2023-04-03T07:44:14;7.60;79.10
814;DHT22;389;48.710;9.392;2023-04-03T07:46:40;7.80;79.00
814;DHT22;389;48.710;9.392;2023-04-03T07:49:06;8.00;78.40
814;DHT22;389;48.710;9.392;2023-04-03T07:51:32;8.20;78.10
814;DHT22;389;48.710;9.392;2023-04-03T07:54:10;8.30;78.00
814;DHT22;389;48.710;9.392;2023-04-03T07:56:36;8.40;77.30
814;DHT22;389;48.710;9.392;2023-04-03T07:59:02;8.50;77.30
814;DHT22;389;48.710;9.392;2023-04-03T08:01:27;8.50;77.20
814;DHT22;389;48.710;9.392;2023-04-03T08:03:53;8.70;77.20
814;DHT22;389;48.710;9.392;2023-04-03T08:06:20;8.80;76.10
814;DHT22;389;48.710;9.392;2023-04-03T08:08:45;8.80;75.90
814;DHT22;389;48.710;9.392;2023-04-03T08:11:11;9.00;75.30
814;DHT22;389;48.710;9.392;2023-04-03T08:13:37;8.80;75.00
814;DHT22;389;48.710;9.392;2023-04-03T08:16:12;8.90;75.70
814;DHT22;389;48.710;9.392;2023-04-03T08:18:38;9.00;75.70
814;DHT22;389;48.710;9.392;2023-04-03T08:21:09;9.00;75.00
814;DHT22;389;48.710;9.392;2023-04-03T08:23:36;8.80;74.90
814;DHT22;389;48.710;9.392;2023-04-03T08:26:09;8.60;75.50
814;DHT22;389;48.710;9.392;2023-04-03T08:28:35;8.50;75.80
814;DHT22;389;48.710;9.392;2023-04-03T08:31:05;8.60;76.30
814;DHT22;389;48.710;9.392;2023-04-03T08:33:32;8.60;75.80
814;DHT22;389;48.710;9.392;2023-04-03T08:35:57;8.50;76.00
814;DHT22;389;48.710;9.392;2023-04-03T08:38:23;8.40;75.60
814;DHT22;389;48.710;9.392;2023-04-03T08:41:01;8.30;75.50
814;DHT22;389;48.710;9.392;2023-04-03T08:46:18;8.50;76.50
814;DHT22;389;48.710;9.392;2023-04-03T08:48:47;8.60;75.70
814;DHT22;389;48.710;9.392;2023-04-03T08:51:16;8.70;75.30
814;DHT22;389;48.710;9.392;2023-04-03T08:53:55;8.80;74.60
814;DHT22;389;48.710;9.392;2023-04-03T08:56:22;8.90;74.20
814;DHT22;389;48.710;9.392;2023-04-03T08:59:19;9.00;73.60
814;DHT22;389;48.710;9.392;2023-04-03T09:01:49;9.20;73.70
814;DHT22;389;48.710;9.392;2023-04-03T09:04:17;9.30;73.00
814;DHT22;389;48.710;9.392;2023-04-03T09:06:47;9.60;72.80
814;DHT22;389;48.710;9.392;2023-04-03T09:09:47;9.70;73.50
814;DHT22;389;48.710;9.392;2023-04-03T09:14:46;10.20;69.00
814;DHT22;389;48.710;9.392;2023-04-03T09:23:16;10.50;68.10
814;DHT22;389;48.710;9.392;2023-04-03T09:25:43;10.60;67.80
814;DHT22;389;48.710;9.392;2023-04-03T09:28:09;10.70;65.70
814;DHT22;389;48.710;9.392;2023-04-03T09:30:36;10.60;63.50
814;DHT22;389;48.710;9.392;2023-04-03T09:33:03;10.40;64.30
814;DHT22;389;48.710;9.392;2023-04-03T09:35:34;10.30;65.50
814;DHT22;389;48.710;9.392;2023-04-03T09:38:23;10.30;65.40
814;DHT22;389;48.710;9.392;2023-04-03T09:41:04;10.30;65.20
814;DHT22;389;48.710;9.392;2023-04-03T09:43:32;10.30;65.10
814;DHT22;389;48.710;9.392;2023-04-03T09:46:36;10.40;65.00
814;DHT22;389;48.710;9.392;2023-04-03T09:49:04;10.50;64.30
814;DHT22;389;48.710;9.392;2023-04-03T09:51:31;10.60;63.80
814;DHT22;389;48.710;9.392;2023-04-03T09:53:57;10.70;63.30
814;DHT22;389;48.710;9.392;2023-04-03T09:56:28;10.80;62.60
814;DHT22;389;48.710;9.392;2023-04-03T10:01:35;10.60;59.70
814;DHT22;389;48.710;9.392;2023-04-03T10:04:14;10.50;59.50
814;DHT22;389;48.710;9.392;2023-04-03T10:06:53;10.50;59.90
814;DHT22;389;48.710;9.392;2023-04-03T10:09:27;10.60;59.40
814;DHT22;389;48.710;9.392;2023-04-03T10:14:24;10.40;61.80
814;DHT22;389;48.710;9.392;2023-04-03T10:17:39;10.40;62.00
814;DHT22;389;48.710;9.392;2023-04-03T10:19:59;10.30;60.60
814;DHT22;389;48.710;9.392;2023-04-03T10:25:21;10.20;59.30
814;DHT22;389;48.710;9.392;2023-04-03T10:28:19;10.10;58.20
814;DHT22;389;48.710;9.392;2023-04-03T10:31:01;9.90;62.50
814;DHT22;389;48.710;9.392;2023-04-03T10:42:08;9.10;66.50
814;DHT22;389;48.710;9.392;2023-04-03T10:45:08;9.00;67.70
814;DHT22;389;48.710;9.392;2023-04-03T10:48:07;9.00;68.10
814;DHT22;389;48.710;9.392;2023-04-03T10:53:50;9.10;69.40
814;DHT22;389;48.710;9.392;2023-04-03T10:56:44;9.20;68.10
814;DHT22;389;48.710;9.392;2023-04-03T10:59:22;9.10;67.60
814;DHT22;389;48.710;9.392;2023-04-03T11:02:04;9.00;67.40
814;DHT22;389;48.710;9.392;2023-04-03T11:04:35;8.90;67.70
814;DHT22;389;48.710;9.392;2023-04-03T11:07:28;8.90;66.90
814;DHT22;389;48.710;9.392;2023-04-03T11:10:03;8.80;66.00
814;DHT22;389;48.710;9.392;2023-04-03T11:12:46;8.80;64.60
814;DHT22;389;48.710;9.392;2023-04-03T11:15:16;8.90;65.50
814;DHT22;389;48.710;9.392;2023-04-03T11:18:06;9.00;65.20
814;DHT22;389;48.710;9.392;2023-04-03T11:20:35;9.10;63.70
814;DHT22;389;48.710;9.392;2023-04-03T11:23:08;9.30;62.30
814;DHT22;389;48.710;9.392;2023-04-03T11:25:39;9.30;62.70
814;DHT22;389;48.710;9.392;2023-04-03T11:28:13;9.50;63.30
814;DHT22;389;48.710;9.392;2023-04-03T11:36:19;9.60;62.60
814;DHT22;389;48.710;9.392;2023-04-03T11:38:48;9.60;61.00
814;DHT22;389;48.710;9.392;2023-04-03T11:41:14;9.50;61.00
814;DHT22;389;48.710;9.392;2023-04-03T11:44:05;9.50;60.40
814;DHT22;389;48.710;9.392;2023-04-03T11:46:55;9.40;60.10
814;DHT22;389;48.710;9.392;2023-04-03T12:05:56;9.50;59.90
814;DHT22;389;48.710;9.392;2023-04-03T12:32:32;10.50;55.90
814;DHT22;389;48.710;9.392;2023-04-03T12:46:53;10.60;56.00
814;DHT22;389;48.710;9.392;2023-04-03T12:49:43;10.70;56.20
814;DHT22;389;48.710;9.392;2023-04-03T12:52:35;10.70;56.40
814;DHT22;389;48.710;9.392;2023-04-03T12:55:18;10.90;56.10
814;DHT22;389;48.710;9.392;2023-04-03T12:57:49;10.90;55.70
814;DHT22;389;48.710;9.392;2023-04-03T13:00:33;10.90;55.70
814;DHT22;389;48.710;9.392;2023-04-03T13:03:01;11.00;55.80
814;DHT22;389;48.710;9.392;2023-04-03T13:05:28;11.00;55.50
814;DHT22;389;48.710;9.392;2023-04-03T13:08:03;11.10;55.40
814;DHT22;389;48.710;9.392;2023-04-03T13:10:30;11.10;55.00
814;DHT22;389;48.710;9.392;2023-04-03T13:13:08;11.20;54.40
814;DHT22;389;48.710;9.392;2023-04-03T13:15:45;11.10;53.70
814;DHT22;389;48.710;9.392;2023-04-03T13:18:38;11.20;53.80
814;DHT22;389;48.710;9.392;2023-04-03T13:21:13;11.00;53.00
814;DHT22;389;48.710;9.392;2023-04-03T13:23:46;11.00;53.30
814;DHT22;389;48.710;9.392;2023-04-03T13:26:16;11.00;53.70
814;DHT22;389;48.710;9.392;2023-04-03T13:28:43;10.90;53.80
814;DHT22;389;48.710;9.392;2023-04-03T13:34:03;10.80;54.50
814;DHT22;389;48.710;9.392;2023-04-03T13:36:37;10.80;54.80
814;DHT22;389;48.710;9.392;2023-04-03T13:41:41;10.60;54.60
814;DHT22;389;48.710;9.392;2023-04-03T13:47:00;10.60;54.30
814;DHT22;389;48.710;9.392;2023-04-03T13:51:51;10.60;53.30
814;DHT22;389;48.710;9.392;2023-04-03T13:54:24;10.70;53.70
814;DHT22;389;48.710;9.392;2023-04-03T13:56:54;10.70;54.10
814;DHT22;389;48.710;9.392;2023-04-03T13:59:29;10.80;53.90
814;DHT22;389;48.710;9.392;2023-04-03T14:02:13;10.90;54.40
814;DHT22;389;48.710;9.392;2023-04-03T14:07:11;10.60;52.80
814;DHT22;389;48.710;9.392;2023-04-03T14:09:37;10.50;52.90
814;DHT22;389;48.710;9.392;2023-04-03T14:12:07;10.40;53.40
814;DHT22;389;48.710;9.392;2023-04-03T14:14:35;10.40;53.90
814;DHT22;389;48.710;9.392;2023-04-03T14:17:09;10.40;53.00
814;DHT22;389;48.710;9.392;2023-04-03T14:19:36;10.40;53.00
814;DHT22;389;48.710;9.392;2023-04-03T14:22:16;10.40;52.60
814;DHT22;389;48.710;9.392;2023-04-03T14:24:42;10.30;52.40
814;DHT22;389;48.710;9.392;2023-04-03T14:27:30;10.30;52.70
814;DHT22;389;48.710;9.392;2023-04-03T14:29:58;10.40;52.50
814;DHT22;389;48.710;9.392;2023-04-03T14:32:26;10.60;52.60
814;DHT22;389;48.710;9.392;2023-04-03T14:34:52;10.80;52.20
814;DHT22;389;48.710;9.392;2023-04-03T14:37:24;10.80;52.20
814;DHT22;389;48.710;9.392;2023-04-03T14:39:51;10.70;52.60
814;DHT22;389;48.710;9.392;2023-04-03T14:42:33;10.50;52.90
814;DHT22;389;48.710;9.392;2023-04-03T14:45:01;10.40;52.70
814;DHT22;389;48.710;9.392;2023-04-03T14:47:29;10.30;53.10
814;DHT22;389;48.710;9.392;2023-04-03T14:49:56;10.30;53.30
814;DHT22;389;48.710;9.392;2023-04-03T14:52:29;10.30;53.70
814;DHT22;389;48.710;9.392;2023-04-03T14:54:56;10.20;53.90
814;DHT22;389;48.710;9.392;2023-04-03T14:57:24;10.20;53.80
814;DHT22;389;48.710;9.392;2023-04-03T14:59:51;10.20;53.80
814;DHT22;389;48.710;9.392;2023-04-03T15:02:36;10.00;54.10
814;DHT22;389;48.710;9.392;2023-04-03T15:05:06;10.00;54.50
814;DHT22;389;48.710;9.392;2023-04-03T15:07:52;9.90;54.60
814;DHT22;389;48.710;9.392;2023-04-03T15:10:28;9.90;54.60
814;DHT22;389;48.710;9.392;2023-04-03T15:12:59;9.80;53.60
814;DHT22;389;48.710;9.392;2023-04-03T15:16:13;9.80;53.70
814;DHT22;389;48.710;9.392;2023-04-03T15:22:05;9.50;53.90
814;DHT22;389;48.710;9.392;2023-04-03T15:28:13;9.50;55.10
814;DHT22;389;48.710;9.392;2023-04-03T15:30:46;9.40;55.90
814;DHT22;389;48.710;9.392;2023-04-03T15:33:14;9.70;55.50
814;DHT22;389;48.710;9.392;2023-04-03T15:35:43;9.90;55.90
814;DHT22;389;48.710;9.392;2023-04-03T15:38:09;9.90;54.80
814;DHT22;389;48.710;9.392;2023-04-03T15:40:41;10.00;53.80
814;DHT22;389;48.710;9.392;2023-04-03T15:43:09;10.10;54.60
814;DHT22;389;48.710;9.392;2023-04-03T15:45:35;10.30;54.70
814;DHT22;389;48.710;9.392;2023-04-03T15:48:03;10.10;54.60
814;DHT22;389;48.710;9.392;2023-04-03T15:50:30;10.00;53.90
814;DHT22;389;48.710;9.392;2023-04-03T15:52:57;9.70;54.80
814;DHT22;389;48.710;9.392;2023-04-03T15:55:30;9.60;54.90
814;DHT22;389;48.710;9.392;2023-04-03T15:57:58;9.40;54.60
814;DHT22;389;48.710;9.392;2023-04-03T16:00:25;9.20;54.80
814;DHT22;389;48.710;9.392;2023-04-03T16:02:58;9.10;55.20
814;DHT22;389;48.710;9.392;2023-04-03T16:05:24;9.00;55.00
814;DHT22;389;48.710;9.392;2023-04-03T16:07:50;9.10;55.40
814;DHT22;389;48.710;9.392;2023-04-03T16:10:17;9.20;56.00
814;DHT22;389;48.710;9.392;2023-04-03T16:12:44;9.40;54.80
814;DHT22;389;48.710;9.392;2023-04-03T16:15:11;9.50;54.50
814;DHT22;389;48.710;9.392;2023-04-03T16:17:41;9.60;54.80
814;DHT22;389;48.710;9.392;2023-04-03T16:20:10;9.70;54.50
814;DHT22;389;48.710;9.392;2023-04-03T16:22:37;9.70;54.40
814;DHT22;389;48.710;9.392;2023-04-03T16:25:04;9.60;54.10
814;DHT22;389;48.710;9.392;2023-04-03T16:27:33;9.40;53.50
814;DHT22;389;48.710;9.392;2023-04-03T16:30:05;9.40;53.50
814;DHT22;389;48.710;9.392;2023-04-03T16:32:33;9.30;53.90
814;DHT22;389;48.710;9.392;2023-04-03T16:35:02;9.40;54.30
814;DHT22;389;48.710;9.392;2023-04-03T16:37:28;9.40;54.00
814;DHT22;389;48.710;9.392;2023-04-03T16:39:57;9.50;54.60
814;DHT22;389;48.710;9.392;2023-04-03T16:42:47;9.40;54.60
814;DHT22;389;48.710;9.392;2023-04-03T16:45:16;9.40;53.50
814;DHT22;389;48.710;9.392;2023-04-03T16:47:52;9.30;53.30
814;DHT22;389;48.710;9.392;2023-04-03T16:50:21;9.30;53.40
814;DHT22;389;48.710;9.392;2023-04-03T16:52:49;9.20;53.60
814;DHT22;389;48.710;9.392;2023-04-03T16:55:18;9.20;53.80
814;DHT22;389;48.710;9.392;2023-04-03T16:57:44;9.20;53.70
814;DHT22;389;48.710;9.392;2023-04-03T17:00:17;9.00;53.60
814;DHT22;389;48.710;9.392;2023-04-03T17:02:43;8.90;53.90
814;DHT22;389;48.710;9.392;2023-04-03T17:05:09;8.80;53.80
814;DHT22;389;48.710;9.392;2023-04-03T17:07:46;8.70;53.80
814;DHT22;389;48.710;9.392;2023-04-03T17:10:13;8.80;54.30
814;DHT22;389;48.710;9.392;2023-04-03T17:12:42;8.70;54.40
814;DHT22;389;48.710;9.392;2023-04-03T17:15:08;8.80;54.60
814;DHT22;389;48.710;9.392;2023-04-03T17:17:36;8.70;54.20
814;DHT22;389;48.710;9.392;2023-04-03T17:20:03;8.70;54.30
814;DHT22;389;48.710;9.392;2023-04-03T17:22:30;8.60;54.20
814;DHT22;389;48.710;9.392;2023-04-03T17:24:57;8.60;54.40
814;DHT22;389;48.710;9.392;2023-04-03T17:27:24;8.40;54.70
814;DHT22;389;48.710;9.392;2023-04-03T17:33:22;8.40;54.80
814;DHT22;389;48.710;9.392;2023-04-03T17:36:00;8.40;54.80
814;DHT22;389;48.710;9.392;2023-04-03T17:38:29;8.30;55.20
814;DHT22;389;48.710;9.392;2023-04-03T17:41:01;8.40;55.80
814;DHT22;389;48.710;9.392;2023-04-03T17:43:30;8.20;55.40
814;DHT22;389;48.710;9.392;2023-04-03T17:52:42;8.00;55.80
814;DHT22;389;48.710;9.392;2023-04-03T17:55:08;7.70;55.70
814;DHT22;389;48.710;9.392;2023-04-03T17:57:37;7.80;56.00
814;DHT22;389;48.710;9.392;2023-04-03T18:00:03;7.70;56.70
814;DHT22;389;48.710;9.392;2023-04-03T18:02:29;7.70;56.40
814;DHT22;389;48.710;9.392;2023-04-03T18:04:56;7.60;56.40
814;DHT22;389;48.710;9.392;2023-04-03T18:07:22;7.60;56.40
814;DHT22;389;48.710;9.392;2023-04-03T18:09:50;7.60;56.80
814;DHT22;389;48.710;9.392;2023-04-03T18:12:16;7.60;57.20
814;DHT22;389;48.710;9.392;2023-04-03T18:18:32;7.50;57.30
814;DHT22;389;48.710;9.392;2023-04-03T18:20:59;7.40;57.30
814;DHT22;389;48.710;9.392;2023-04-03T18:26:37;7.40;57.80
814;DHT22;389;48.710;9.392;2023-04-03T18:29:05;7.40;57.80
814;DHT22;389;48.710;9.392;2023-04-03T18:31:33;7.30;57.90
814;DHT22;389;48.710;9.392;2023-04-03T18:34:00;7.20;58.30
814;DHT22;389;48.710;9.392;2023-04-03T18:36:33;7.20;58.40
814;DHT22;389;48.710;9.392;2023-04-03T18:39:02;7.10;58.50
814;DHT22;389;48.710;9.392;2023-04-03T18:41:31;7.00;58.50
814;DHT22;389;48.710;9.392;2023-04-03T18:43:59;6.90;58.40
814;DHT22;389;48.710;9.392;2023-04-03T18:46:27;6.90;58.50
814;DHT22;389;48.710;9.392;2023-04-03T18:48:54;6.90;58.40
814;DHT22;389;48.710;9.392;2023-04-03T18:51:20;6.80;58.60
814;DHT22;389;48.710;9.392;2023-04-03T18:53:46;6.80;58.90
814;DHT22;389;48.710;9.392;2023-04-03T18:56:12;6.90;59.00
814;DHT22;389;48.710;9.392;2023-04-03T18:58:38;6.80;58.80
814;DHT22;389;48.710;9.392;2023-04-03T19:01:05;6.80;58.90
814;DHT22;389;48.710;9.392;2023-04-03T19:03:38;6.80;59.10
814;DHT22;389;48.710;9.392;2023-04-03T19:06:04;6.90;58.70
814;DHT22;389;48.710;9.392;2023-04-03T19:08:32;6.70;58.80
814;DHT22;389;48.710;9.392;2023-04-03T19:10:58;6.90;59.00
814;DHT22;389;48.710;9.392;2023-04-03T19:13:24;6.90;59.00
814;DHT22;389;48.710;9.392;2023-04-03T19:15:52;6.90;58.80
814;DHT22;389;48.710;9.392;2023-04-03T19:18:24;6.90;58.80
814;DHT22;389;48.710;9.392;2023-04-03T19:20:51;6.80;58.90